createdAt,value
2023-10-10T00:00:35.043Z,10.66
2023-10-10T00:01:35.093Z,10.63
2023-10-10T00:02:35.162Z,10.58
2023-10-10T00:03:35.258Z,10.67
2023-10-10T00:04:35.143Z,10.62
2023-10-10T00:05:35.200Z,10.62
2023-10-10T00:06:35.192Z,10.66
2023-10-10T00:07:35.220Z,10.67
2023-10-10T00:08:35.298Z,10.62
2023-10-10T00:09:35.289Z,10.67
2023-10-10T00:10:35.307Z,10.71
2023-10-10T00:11:35.310Z,10.67
2023-10-10T00:12:35.392Z,10.63
2023-10-10T00:13:35.388Z,10.67
2023-10-10T00:14:35.435Z,10.69
2023-10-10T00:15:35.417Z,10.69
2023-10-10T00:16:35.455Z,10.71
2023-10-10T00:17:35.996Z,10.69
2023-10-10T00:18:35.525Z,10.70
2023-10-10T00:19:35.522Z,10.66
2023-10-10T00:20:35.560Z,10.71
2023-10-10T00:21:35.556Z,10.73
2023-10-10T00:22:35.632Z,10.71
2023-10-10T00:23:35.649Z,10.69
2023-10-10T00:24:35.664Z,10.70
2023-10-10T00:25:35.674Z,10.70
2023-10-10T00:26:35.719Z,10.70
2023-10-10T00:27:35.728Z,10.73
2023-10-10T00:28:35.794Z,10.73
2023-10-10T00:29:35.874Z,10.69
2023-10-10T00:30:35.811Z,10.70
2023-10-10T00:31:35.863Z,10.74
2023-10-10T00:32:35.906Z,10.70
2023-10-10T00:33:35.903Z,10.71
2023-10-10T00:34:35.908Z,10.71
2023-10-10T00:35:35.985Z,10.71
2023-10-10T00:36:35.980Z,10.74
2023-10-10T00:37:36.186Z,10.73
2023-10-10T00:38:36.071Z,10.74
2023-10-10T00:39:36.063Z,10.73
2023-10-10T00:40:36.094Z,10.77
2023-10-10T00:41:36.127Z,10.76
2023-10-10T00:42:36.170Z,10.76
2023-10-10T00:43:36.193Z,10.76
2023-10-10T00:44:36.224Z,10.76
2023-10-10T00:45:36.227Z,10.77
2023-10-10T00:46:36.281Z,10.74
2023-10-10T00:47:36.442Z,10.76
2023-10-10T00:48:36.362Z,10.77
2023-10-10T00:49:36.343Z,10.74
2023-10-10T00:50:36.390Z,10.73
2023-10-10T00:51:36.383Z,10.73
2023-10-10T00:52:36.420Z,10.73
2023-10-10T00:53:36.505Z,10.73
2023-10-10T00:54:36.489Z,10.74
2023-10-10T00:55:36.504Z,10.73
2023-10-10T00:56:36.528Z,10.74
2023-10-10T00:57:36.527Z,10.76
2023-10-10T00:58:36.615Z,10.77
2023-10-10T00:59:36.735Z,10.76
2023-10-10T01:00:36.664Z,10.73
2023-10-10T01:01:36.652Z,10.74
2023-10-10T01:02:36.804Z,10.80
2023-10-10T01:03:36.898Z,10.81
2023-10-10T01:04:36.830Z,10.77
2023-10-10T01:05:36.797Z,10.79
2023-10-10T01:06:36.795Z,10.79
2023-10-10T01:07:36.804Z,10.81
2023-10-10T01:08:36.918Z,10.85
2023-10-10T01:09:36.860Z,10.84
2023-10-10T01:10:36.872Z,10.79
2023-10-10T01:11:36.886Z,10.80
2023-10-10T01:12:37.423Z,10.84
2023-10-10T01:13:36.940Z,10.81
2023-10-10T01:14:37.053Z,10.80
2023-10-10T01:15:36.977Z,10.79
2023-10-10T01:16:37.069Z,10.77
2023-10-10T01:17:37.114Z,10.80
2023-10-10T01:18:37.080Z,10.80
2023-10-10T01:19:37.086Z,10.85
2023-10-10T01:20:37.129Z,10.81
2023-10-10T01:21:37.152Z,10.79
2023-10-10T01:22:37.175Z,10.79
2023-10-10T01:23:37.213Z,10.77
2023-10-10T01:24:37.216Z,10.79
2023-10-10T01:25:37.237Z,10.81
2023-10-10T01:26:37.271Z,10.80
2023-10-10T01:27:37.291Z,10.81
2023-10-10T01:28:37.358Z,10.79
2023-10-10T01:29:37.360Z,10.79
2023-10-10T01:30:37.410Z,10.81
2023-10-10T01:31:37.396Z,10.80
2023-10-10T01:32:37.561Z,10.84
2023-10-10T01:33:37.959Z,10.85
2023-10-10T01:34:37.495Z,10.87
2023-10-10T01:35:37.571Z,10.80
2023-10-10T01:36:37.548Z,10.81
2023-10-10T01:37:37.568Z,10.81
2023-10-10T01:38:37.624Z,10.87
2023-10-10T01:39:37.624Z,10.84
2023-10-10T01:40:37.646Z,10.87
2023-10-10T01:41:37.681Z,10.88
2023-10-10T01:42:37.681Z,10.85
2023-10-10T01:43:37.734Z,10.87
2023-10-10T01:44:37.832Z,10.85
2023-10-10T01:45:37.770Z,10.88
2023-10-10T01:46:37.871Z,10.81
2023-10-10T01:47:37.891Z,10.87
2023-10-10T01:48:37.873Z,10.81
2023-10-10T01:49:37.879Z,10.81
2023-10-10T01:50:37.928Z,10.81
2023-10-10T01:51:37.921Z,10.84
2023-10-10T01:52:37.947Z,10.84
2023-10-10T01:53:37.986Z,10.84
2023-10-10T01:54:37.992Z,10.81
2023-10-10T01:55:38.022Z,10.85
2023-10-10T01:56:38.035Z,10.85
2023-10-10T01:57:38.053Z,10.85
2023-10-10T01:58:38.107Z,10.85
2023-10-10T01:59:38.240Z,10.87
2023-10-10T02:00:38.255Z,10.81
2023-10-10T02:01:38.228Z,10.81
2023-10-10T02:02:38.365Z,10.80
2023-10-10T02:03:38.319Z,10.85
2023-10-10T02:04:38.228Z,10.84
2023-10-10T02:05:38.282Z,10.81
2023-10-10T02:06:38.281Z,10.85
2023-10-10T02:07:38.302Z,10.84
2023-10-10T02:08:38.330Z,10.81
2023-10-10T02:09:38.334Z,10.80
2023-10-10T02:10:38.350Z,10.84
2023-10-10T02:11:38.355Z,10.81
2023-10-10T02:12:38.387Z,10.85
2023-10-10T02:13:38.413Z,10.89
2023-10-10T02:14:38.442Z,10.87
2023-10-10T02:15:38.440Z,10.85
2023-10-10T02:16:38.506Z,10.81
2023-10-10T02:17:38.513Z,10.85
2023-10-10T02:18:38.671Z,10.84
2023-10-10T02:19:38.914Z,10.85
2023-10-10T02:20:38.578Z,10.80
2023-10-10T02:21:38.555Z,10.87
2023-10-10T02:22:38.597Z,10.85
2023-10-10T02:23:38.709Z,10.84
2023-10-10T02:24:38.646Z,10.85
2023-10-10T02:25:38.635Z,10.89
2023-10-10T02:26:38.680Z,10.87
2023-10-10T02:27:38.661Z,10.84
2023-10-10T02:28:38.715Z,10.91
2023-10-10T02:29:38.786Z,10.91
2023-10-10T02:30:38.789Z,10.91
2023-10-10T02:31:38.739Z,10.87
2023-10-10T02:32:38.841Z,10.88
2023-10-10T02:33:38.885Z,10.87
2023-10-10T02:34:38.823Z,10.91
2023-10-10T02:35:38.831Z,10.92
2023-10-10T02:36:38.868Z,10.87
2023-10-10T02:37:38.867Z,10.88
2023-10-10T02:38:38.969Z,10.87
2023-10-10T02:39:38.919Z,10.87
2023-10-10T02:40:38.955Z,10.91
2023-10-10T02:41:38.979Z,10.92
2023-10-10T02:42:39.061Z,10.94
2023-10-10T02:43:39.023Z,10.89
2023-10-10T02:44:39.075Z,10.89
2023-10-10T02:45:39.042Z,10.92
2023-10-10T02:46:39.373Z,10.92
2023-10-10T02:47:39.134Z,10.92
2023-10-10T02:48:39.156Z,10.91
2023-10-10T02:49:39.250Z,10.95
2023-10-10T02:50:39.171Z,10.95
2023-10-10T02:51:39.224Z,10.94
2023-10-10T02:52:39.224Z,10.95
2023-10-10T02:53:39.365Z,10.95
2023-10-10T02:54:39.254Z,10.94
2023-10-10T02:55:39.257Z,10.92
2023-10-10T02:56:39.283Z,10.95
2023-10-10T02:57:39.290Z,10.98
2023-10-10T02:58:39.411Z,10.94
2023-10-10T02:59:39.638Z,10.96
2023-10-10T03:00:39.371Z,11.01
2023-10-10T03:01:39.417Z,10.99
2023-10-10T03:02:39.569Z,10.99
2023-10-10T03:03:39.591Z,10.99
2023-10-10T03:04:39.453Z,10.99
2023-10-10T03:05:39.603Z,10.98
2023-10-10T03:06:39.473Z,11.01
2023-10-10T03:07:39.492Z,10.98
2023-10-10T03:08:39.547Z,11.01
2023-10-10T03:09:39.541Z,10.98
2023-10-10T03:10:39.588Z,11.01
2023-10-10T03:11:39.620Z,11.04
2023-10-10T03:12:39.606Z,11.03
2023-10-10T03:13:39.647Z,11.07
2023-10-10T03:14:39.689Z,11.04
2023-10-10T03:15:39.672Z,11.01
2023-10-10T03:16:39.705Z,11.04
2023-10-10T03:17:39.774Z,11.06
2023-10-10T03:18:39.756Z,11.04
2023-10-10T03:19:39.769Z,11.07
2023-10-10T03:20:39.856Z,11.07
2023-10-10T03:21:39.778Z,11.10
2023-10-10T03:22:39.827Z,11.06
2023-10-10T03:23:39.892Z,11.06
2023-10-10T03:24:39.871Z,11.07
2023-10-10T03:25:39.886Z,11.06
2023-10-10T03:26:39.948Z,11.04
2023-10-10T03:27:39.936Z,11.03
2023-10-10T03:28:40.016Z,11.01
2023-10-10T03:29:40.033Z,11.03
2023-10-10T03:30:40.038Z,11.06
2023-10-10T03:31:40.074Z,11.03
2023-10-10T03:32:40.212Z,11.04
2023-10-10T03:33:40.122Z,11.06
2023-10-10T03:34:40.115Z,11.01
2023-10-10T03:35:40.203Z,11.03
2023-10-10T03:36:40.179Z,11.03
2023-10-10T03:37:40.198Z,11.06
2023-10-10T03:38:40.270Z,11.01
2023-10-10T03:39:40.256Z,11.01
2023-10-10T03:40:40.331Z,11.07
2023-10-10T03:41:40.337Z,11.01
2023-10-10T03:42:40.328Z,11.04
2023-10-10T03:43:40.377Z,11.06
2023-10-10T03:44:40.401Z,11.01
2023-10-10T03:45:40.402Z,11.07
2023-10-10T03:46:40.430Z,11.06
2023-10-10T03:47:40.521Z,11.01
2023-10-10T03:48:40.507Z,11.04
2023-10-10T03:49:40.486Z,10.99
2023-10-10T03:50:40.622Z,11.06
2023-10-10T03:51:40.520Z,11.03
2023-10-10T03:52:40.559Z,11.04
2023-10-10T03:53:40.628Z,11.03
2023-10-10T03:54:40.625Z,11.03
2023-10-10T03:55:40.614Z,11.01
2023-10-10T03:56:40.699Z,11.03
2023-10-10T03:57:40.648Z,11.06
2023-10-10T03:58:40.700Z,11.07
2023-10-10T03:59:40.800Z,11.07
2023-10-10T04:00:40.718Z,11.06
2023-10-10T04:01:40.800Z,11.06
2023-10-10T04:02:40.809Z,11.09
2023-10-10T04:03:40.880Z,11.06
2023-10-10T04:04:40.797Z,11.07
2023-10-10T04:05:40.888Z,11.07
2023-10-10T04:06:40.861Z,11.09
2023-10-10T04:07:43.570Z,11.07
2023-10-10T04:08:40.942Z,11.14
2023-10-10T04:09:40.919Z,11.10
2023-10-10T04:10:40.935Z,11.13
2023-10-10T04:11:40.960Z,11.16
2023-10-10T04:12:40.988Z,11.14
2023-10-10T04:13:41.012Z,11.16
2023-10-10T04:14:41.139Z,11.10
2023-10-10T04:15:41.066Z,11.07
2023-10-10T04:16:41.151Z,11.10
2023-10-10T04:17:41.165Z,11.13
2023-10-10T04:18:41.146Z,11.10
2023-10-10T04:19:41.113Z,11.10
2023-10-10T04:20:41.199Z,11.13
2023-10-10T04:21:41.166Z,11.13
2023-10-10T04:22:41.184Z,11.14
2023-10-10T04:23:41.258Z,11.19
2023-10-10T04:24:41.240Z,11.19
2023-10-10T04:25:41.247Z,11.17
2023-10-10T04:26:41.345Z,11.21
2023-10-10T04:27:41.306Z,11.19
2023-10-10T04:28:41.362Z,11.21
2023-10-10T04:29:41.373Z,11.17
2023-10-10T04:30:41.392Z,11.16
2023-10-10T04:31:41.431Z,11.22
2023-10-10T04:32:41.531Z,11.17
2023-10-10T04:33:41.442Z,11.17
2023-10-10T04:34:41.445Z,11.22
2023-10-10T04:35:41.517Z,11.22
2023-10-10T04:36:41.640Z,11.21
2023-10-10T04:37:41.528Z,11.27
2023-10-10T04:38:41.609Z,11.24
2023-10-10T04:39:41.534Z,11.21
2023-10-10T04:40:41.566Z,11.22
2023-10-10T04:41:41.748Z,11.19
2023-10-10T04:42:41.660Z,11.19
2023-10-10T04:43:41.649Z,11.19
2023-10-10T04:44:41.687Z,11.19
2023-10-10T04:45:41.710Z,11.25
2023-10-10T04:46:41.681Z,11.24
2023-10-10T04:47:41.851Z,11.21
2023-10-10T04:48:41.748Z,11.21
2023-10-10T04:49:41.725Z,11.19
2023-10-10T04:50:41.791Z,11.19
2023-10-10T04:51:41.771Z,11.21
2023-10-10T04:52:41.790Z,11.21
2023-10-10T04:53:41.847Z,11.22
2023-10-10T04:54:41.812Z,11.17
2023-10-10T04:55:41.824Z,11.21
2023-10-10T04:56:41.902Z,11.22
2023-10-10T04:57:41.844Z,11.21
2023-10-10T04:58:41.898Z,11.17
2023-10-10T04:59:41.925Z,11.22
2023-10-10T05:00:41.911Z,11.21
2023-10-10T05:01:41.946Z,11.17
2023-10-10T05:02:42.054Z,11.21
2023-10-10T05:03:42.025Z,11.24
2023-10-10T05:04:42.756Z,11.21
2023-10-10T05:05:42.050Z,11.22
2023-10-10T05:06:42.004Z,11.25
2023-10-10T05:07:42.086Z,11.24
2023-10-10T05:08:42.113Z,11.24
2023-10-10T05:09:42.043Z,11.28
2023-10-10T05:10:42.088Z,11.24
2023-10-10T05:11:42.099Z,11.24
2023-10-10T05:12:42.101Z,11.25
2023-10-10T05:13:42.140Z,11.31
2023-10-10T05:14:42.255Z,11.28
2023-10-10T05:15:42.148Z,11.30
2023-10-10T05:16:42.183Z,11.25
2023-10-10T05:17:42.272Z,11.28
2023-10-10T05:18:42.233Z,11.24
2023-10-10T05:19:42.216Z,11.27
2023-10-10T05:20:43.238Z,11.27
2023-10-10T05:21:42.376Z,11.25
2023-10-10T05:22:42.281Z,11.25
2023-10-10T05:23:42.451Z,11.22
2023-10-10T05:24:42.295Z,11.24
2023-10-10T05:25:42.318Z,11.22
2023-10-10T05:26:42.378Z,11.22
2023-10-10T05:27:42.376Z,11.28
2023-10-10T05:28:42.381Z,11.24
2023-10-10T05:29:42.397Z,11.24
2023-10-10T05:30:42.380Z,11.22
2023-10-10T05:31:42.430Z,11.22
2023-10-10T05:32:42.455Z,11.25
2023-10-10T05:33:42.445Z,11.27
2023-10-10T05:34:42.474Z,11.22
2023-10-10T05:35:42.479Z,11.25
2023-10-10T05:36:42.486Z,11.27
2023-10-10T05:37:42.494Z,11.24
2023-10-10T05:38:42.605Z,11.25
2023-10-10T05:39:42.540Z,11.27
2023-10-10T05:40:42.573Z,11.27
2023-10-10T05:41:42.590Z,11.22
2023-10-10T05:42:42.585Z,11.27
2023-10-10T05:43:42.623Z,11.25
2023-10-10T05:44:42.673Z,11.27
2023-10-10T05:45:42.762Z,11.24
2023-10-10T05:46:42.649Z,11.27
2023-10-10T05:47:42.762Z,11.27
2023-10-10T05:48:42.712Z,11.28
2023-10-10T05:49:42.692Z,11.27
2023-10-10T05:50:42.730Z,11.27
2023-10-10T05:51:42.721Z,11.28
2023-10-10T05:52:42.724Z,11.35
2023-10-10T05:53:42.820Z,11.32
2023-10-10T05:54:42.766Z,11.30
2023-10-10T05:55:42.777Z,11.34
2023-10-10T05:56:42.824Z,11.32
2023-10-10T05:57:42.804Z,11.34
2023-10-10T05:58:42.851Z,11.31
2023-10-10T05:59:42.845Z,11.32
2023-10-10T06:00:42.949Z,11.35
2023-10-10T06:01:42.943Z,11.34
2023-10-10T06:02:42.946Z,11.35
2023-10-10T06:03:43.151Z,11.34
2023-10-10T06:04:42.928Z,11.40
2023-10-10T06:05:42.979Z,11.38
2023-10-10T06:06:43.107Z,11.40
2023-10-10T06:07:42.957Z,11.42
2023-10-10T06:08:43.049Z,11.40
2023-10-10T06:09:43.012Z,11.43
2023-10-10T06:10:43.035Z,11.38
2023-10-10T06:11:43.084Z,11.43
2023-10-10T06:12:43.079Z,11.38
2023-10-10T06:13:43.182Z,11.40
2023-10-10T06:14:43.183Z,11.38
2023-10-10T06:15:43.170Z,11.43
2023-10-10T06:16:43.345Z,11.43
2023-10-10T06:17:43.240Z,11.43
2023-10-10T06:18:43.343Z,11.40
2023-10-10T06:19:43.197Z,11.46
2023-10-10T06:20:54.771Z,11.47
2023-10-10T06:21:43.221Z,11.43
2023-10-10T06:22:43.310Z,11.46
2023-10-10T06:23:43.438Z,11.47
2023-10-10T06:24:43.278Z,11.49
2023-10-10T06:25:43.282Z,11.49
2023-10-10T06:26:43.353Z,11.50
2023-10-10T06:27:43.402Z,11.50
2023-10-10T06:28:43.392Z,11.52
2023-10-10T06:29:43.417Z,11.55
2023-10-10T06:30:43.752Z,11.52
2023-10-10T06:31:43.734Z,11.53
2023-10-10T06:32:43.480Z,11.56
2023-10-10T06:33:43.507Z,11.56
2023-10-10T06:34:43.506Z,11.55
2023-10-10T06:35:43.571Z,11.60
2023-10-10T06:36:43.586Z,11.55
2023-10-10T06:37:43.474Z,11.60
2023-10-10T06:38:43.582Z,11.56
2023-10-10T06:39:43.524Z,11.58
2023-10-10T06:40:43.516Z,11.63
2023-10-10T06:41:43.700Z,11.63
2023-10-10T06:42:43.550Z,11.65
2023-10-10T06:43:43.578Z,11.68
2023-10-10T06:44:43.631Z,11.64
2023-10-10T06:45:43.657Z,11.71
2023-10-10T06:46:43.603Z,11.71
2023-10-10T06:47:43.674Z,11.70
2023-10-10T06:48:43.636Z,11.79
2023-10-10T06:49:43.710Z,11.74
2023-10-10T06:50:43.714Z,11.75
2023-10-10T06:51:43.693Z,11.79
2023-10-10T06:52:43.694Z,11.79
2023-10-10T06:53:43.696Z,11.86
2023-10-10T06:54:43.765Z,11.83
2023-10-10T06:55:43.716Z,11.88
2023-10-10T06:56:43.793Z,11.85
2023-10-10T06:57:45.917Z,11.88
2023-10-10T06:58:43.813Z,11.93
2023-10-10T06:59:43.835Z,11.93
2023-10-10T07:00:43.999Z,11.90
2023-10-10T07:01:43.794Z,11.93
2023-10-10T07:02:43.884Z,12.01
2023-10-10T07:03:43.905Z,12.01
2023-10-10T07:04:43.865Z,12.02
2023-10-10T07:05:44.078Z,12.05
2023-10-10T07:06:43.871Z,12.04
2023-10-10T07:07:43.869Z,12.05
2023-10-10T07:08:43.974Z,12.08
2023-10-10T07:09:43.978Z,12.14
2023-10-10T07:10:43.896Z,12.14
2023-10-10T07:11:43.936Z,12.16
2023-10-10T07:12:43.957Z,12.17
2023-10-10T07:13:43.931Z,12.22
2023-10-10T07:14:44.036Z,12.20
2023-10-10T07:15:44.264Z,12.20
2023-10-10T07:16:44.344Z,12.23
2023-10-10T07:17:44.034Z,12.26
2023-10-10T07:18:44.716Z,12.26
2023-10-10T07:19:43.975Z,12.27
2023-10-10T07:20:44.009Z,12.29
2023-10-10T07:21:43.949Z,12.24
2023-10-10T07:22:43.993Z,12.26
2023-10-10T07:23:43.993Z,12.26
2023-10-10T07:24:44.001Z,12.27
2023-10-10T07:25:43.973Z,12.30
2023-10-10T07:26:44.008Z,12.27
2023-10-10T07:27:44.000Z,12.29
2023-10-10T07:28:43.989Z,12.29
2023-10-10T07:29:44.122Z,12.29
2023-10-10T07:30:44.004Z,12.34
2023-10-10T07:31:43.988Z,12.31
2023-10-10T07:32:44.402Z,12.30
2023-10-10T07:33:43.992Z,12.35
2023-10-10T07:34:44.027Z,12.34
2023-10-10T07:35:44.032Z,12.34
2023-10-10T07:36:44.001Z,12.37
2023-10-10T07:37:44.020Z,12.38
2023-10-10T07:38:44.070Z,12.39
2023-10-10T07:39:44.036Z,12.38
2023-10-10T07:40:44.040Z,12.41
2023-10-10T07:41:44.139Z,12.44
2023-10-10T07:42:44.030Z,12.42
2023-10-10T07:43:44.044Z,12.44
2023-10-10T07:44:44.079Z,12.42
2023-10-10T07:45:44.021Z,12.44
2023-10-10T07:46:44.112Z,12.47
2023-10-10T07:47:44.152Z,12.52
2023-10-10T07:48:44.081Z,12.49
2023-10-10T07:49:44.078Z,12.49
2023-10-10T07:50:44.062Z,12.52
2023-10-10T07:51:44.032Z,12.56
2023-10-10T07:52:44.059Z,12.57
2023-10-10T07:53:44.154Z,12.55
2023-10-10T07:54:44.083Z,12.55
2023-10-10T07:55:44.057Z,12.57
2023-10-10T07:56:44.090Z,12.60
2023-10-10T07:57:44.118Z,12.63
2023-10-10T07:58:52.563Z,12.63
2023-10-10T07:59:44.123Z,12.66
2023-10-10T08:00:44.082Z,12.63
2023-10-10T08:01:44.066Z,12.69
2023-10-10T08:02:44.185Z,12.71
2023-10-10T08:03:44.112Z,12.71
2023-10-10T08:04:44.103Z,12.72
2023-10-10T08:05:44.206Z,12.72
2023-10-10T08:06:44.075Z,12.77
2023-10-10T08:07:44.055Z,12.78
2023-10-10T08:08:44.118Z,12.81
2023-10-10T08:09:44.062Z,12.84
2023-10-10T08:10:44.040Z,12.89
2023-10-10T08:11:44.034Z,12.89
2023-10-10T08:12:44.352Z,12.93
2023-10-10T08:13:44.025Z,12.95
2023-10-10T08:14:44.139Z,12.99
2023-10-10T08:15:44.018Z,13.02
2023-10-10T08:16:44.149Z,13.05
2023-10-10T08:17:44.171Z,13.06
2023-10-10T08:18:43.995Z,13.08
2023-10-10T08:19:43.998Z,13.11
2023-10-10T08:20:44.166Z,13.13
2023-10-10T08:21:43.965Z,13.14
2023-10-10T08:22:43.972Z,13.17
2023-10-10T08:23:44.159Z,13.20
2023-10-10T08:24:43.992Z,13.21
2023-10-10T08:25:44.038Z,13.24
2023-10-10T08:26:43.962Z,13.28
2023-10-10T08:27:44.712Z,13.26
2023-10-10T08:28:43.956Z,13.32
2023-10-10T08:29:44.026Z,13.37
2023-10-10T08:30:43.964Z,13.39
2023-10-10T08:31:44.021Z,13.40
2023-10-10T08:32:44.034Z,13.44
2023-10-10T08:33:43.922Z,13.44
2023-10-10T08:34:44.132Z,13.44
2023-10-10T08:35:44.027Z,13.49
2023-10-10T08:36:43.912Z,13.51
2023-10-10T08:37:43.919Z,13.49
2023-10-10T08:38:43.979Z,13.54
2023-10-10T08:39:43.907Z,13.55
2023-10-10T08:40:43.910Z,13.55
2023-10-10T08:41:43.908Z,13.58
2023-10-10T08:42:43.891Z,13.59
2023-10-10T08:43:43.853Z,13.61
2023-10-10T08:44:43.942Z,13.62
2023-10-10T08:45:43.826Z,13.67
2023-10-10T08:46:43.870Z,13.69
2023-10-10T08:47:44.442Z,13.72
2023-10-10T08:48:43.800Z,13.72
2023-10-10T08:49:43.832Z,13.76
2023-10-10T08:50:43.800Z,13.81
2023-10-10T08:51:43.756Z,13.79
2023-10-10T08:52:43.777Z,13.84
2023-10-10T08:53:43.823Z,13.87
2023-10-10T08:54:44.848Z,13.87
2023-10-10T08:55:43.705Z,13.88
2023-10-10T08:56:43.780Z,13.92
2023-10-10T08:57:43.698Z,13.94
2023-10-10T08:58:43.710Z,13.94
2023-10-10T08:59:43.851Z,13.94
2023-10-10T09:00:44.663Z,13.95
2023-10-10T09:01:43.661Z,13.92
2023-10-10T09:02:43.781Z,13.92
2023-10-10T09:03:43.729Z,13.95
2023-10-10T09:04:43.651Z,13.94
2023-10-10T09:05:43.649Z,13.95
2023-10-10T09:06:43.601Z,13.97
2023-10-10T09:07:43.566Z,13.97
2023-10-10T09:08:43.593Z,13.97
2023-10-10T09:09:43.562Z,13.97
2023-10-10T09:10:43.550Z,13.99
2023-10-10T09:11:43.555Z,13.99
2023-10-10T09:12:43.502Z,13.97
2023-10-10T09:13:43.450Z,13.99
2023-10-10T09:14:43.514Z,13.98
2023-10-10T09:15:43.432Z,14.02
2023-10-10T09:16:43.557Z,14.02
2023-10-10T09:17:43.513Z,14.02
2023-10-10T09:18:43.551Z,13.98
2023-10-10T09:19:43.381Z,14.03
2023-10-10T09:20:43.380Z,14.03
2023-10-10T09:21:43.343Z,14.04
2023-10-10T09:22:43.331Z,14.04
2023-10-10T09:23:43.341Z,14.07
2023-10-10T09:24:43.304Z,14.07
2023-10-10T09:25:43.405Z,14.10
2023-10-10T09:26:43.349Z,14.07
2023-10-10T09:27:43.242Z,14.13
2023-10-10T09:28:43.224Z,14.14
2023-10-10T09:29:43.443Z,14.14
2023-10-10T09:30:43.205Z,14.17
2023-10-10T09:31:43.159Z,14.17
2023-10-10T09:32:43.187Z,14.20
2023-10-10T09:33:43.145Z,14.20
2023-10-10T09:34:43.208Z,14.17
2023-10-10T09:35:43.129Z,14.21
2023-10-10T09:36:43.091Z,14.17
2023-10-10T09:37:43.092Z,14.22
2023-10-10T09:38:43.110Z,14.22
2023-10-10T09:39:43.069Z,14.24
2023-10-10T09:40:43.040Z,14.22
2023-10-10T09:41:43.040Z,14.24
2023-10-10T09:42:42.991Z,14.27
2023-10-10T09:43:42.979Z,14.32
2023-10-10T09:44:43.042Z,14.32
2023-10-10T09:45:42.956Z,14.37
2023-10-10T09:46:42.956Z,14.40
2023-10-10T09:47:42.930Z,14.40
2023-10-10T09:48:42.862Z,14.43
2023-10-10T09:49:42.857Z,14.45
2023-10-10T09:50:42.866Z,14.45
2023-10-10T09:51:42.799Z,14.49
2023-10-10T09:52:42.792Z,14.45
2023-10-10T09:53:42.816Z,14.47
2023-10-10T09:54:42.824Z,14.47
2023-10-10T09:55:42.707Z,14.47
2023-10-10T09:56:42.752Z,14.49
2023-10-10T09:57:42.670Z,14.46
2023-10-10T09:58:42.636Z,14.47
2023-10-10T09:59:42.686Z,14.46
2023-10-10T10:00:42.585Z,14.46
2023-10-10T10:01:42.552Z,14.47
2023-10-10T10:02:42.614Z,14.49
2023-10-10T10:03:42.556Z,14.47
2023-10-10T10:04:42.576Z,14.49
2023-10-10T10:05:42.509Z,14.47
2023-10-10T10:06:52.459Z,14.50
2023-10-10T10:07:42.443Z,14.52
2023-10-10T10:08:45.221Z,14.52
2023-10-10T10:09:42.349Z,14.53
2023-10-10T10:10:42.321Z,14.54
2023-10-10T10:11:42.346Z,14.57
2023-10-10T10:12:42.254Z,14.61
2023-10-10T10:13:42.228Z,14.61
2023-10-10T10:14:42.261Z,14.60
2023-10-10T10:15:42.189Z,14.65
2023-10-10T10:16:42.150Z,14.65
2023-10-10T10:17:42.182Z,14.68
2023-10-10T10:18:42.091Z,14.70
2023-10-10T10:19:42.085Z,14.70
2023-10-10T10:20:42.037Z,14.71
2023-10-10T10:21:41.972Z,14.71
2023-10-10T10:22:42.056Z,14.71
2023-10-10T10:23:41.962Z,14.71
2023-10-10T10:24:41.935Z,14.72
2023-10-10T10:25:41.844Z,14.70
2023-10-10T10:26:41.877Z,14.71
2023-10-10T10:27:41.778Z,14.70
2023-10-10T10:28:41.760Z,14.70
2023-10-10T10:29:41.769Z,14.67
2023-10-10T10:30:41.720Z,14.65
2023-10-10T10:31:41.730Z,14.65
2023-10-10T10:32:41.752Z,14.67
2023-10-10T10:33:41.693Z,14.65
2023-10-10T10:34:41.645Z,14.65
2023-10-10T10:35:41.600Z,14.65
2023-10-10T10:36:41.604Z,14.64
2023-10-10T10:37:41.552Z,14.64
2023-10-10T10:38:41.502Z,14.61
2023-10-10T10:39:41.448Z,14.61
2023-10-10T10:40:41.391Z,14.64
2023-10-10T10:41:41.434Z,14.61
2023-10-10T10:42:41.343Z,14.61
2023-10-10T10:43:41.318Z,14.61
2023-10-10T10:44:41.312Z,14.61
2023-10-10T10:45:41.737Z,14.62
2023-10-10T10:46:41.234Z,14.62
2023-10-10T10:47:41.217Z,14.61
2023-10-10T10:48:41.159Z,14.65
2023-10-10T10:49:41.101Z,14.64
2023-10-10T10:50:41.131Z,14.64
2023-10-10T10:51:41.000Z,14.65
2023-10-10T10:52:40.974Z,14.64
2023-10-10T10:53:40.968Z,14.64
2023-10-10T10:54:40.930Z,14.64
2023-10-10T10:55:40.911Z,14.65
2023-10-10T10:56:40.903Z,14.67
2023-10-10T10:57:49.822Z,14.70
2023-10-10T10:58:40.806Z,14.67
2023-10-10T10:59:40.845Z,14.65
2023-10-10T11:00:40.785Z,14.65
2023-10-10T11:01:40.751Z,14.64
2023-10-10T11:02:40.741Z,14.64
2023-10-10T11:03:40.667Z,14.65
2023-10-10T11:04:40.703Z,14.65
2023-10-10T11:05:40.665Z,14.67
2023-10-10T11:06:40.536Z,14.70
2023-10-10T11:07:40.542Z,14.68
2023-10-10T11:08:50.644Z,14.67
2023-10-10T11:09:40.426Z,14.67
2023-10-10T11:10:40.475Z,14.68
2023-10-10T11:11:40.380Z,14.68
2023-10-10T11:12:40.324Z,14.70
2023-10-10T11:13:40.324Z,14.67
2023-10-10T11:14:40.282Z,14.68
2023-10-10T11:15:40.255Z,14.65
2023-10-10T11:16:40.212Z,14.68
2023-10-10T11:17:40.518Z,14.70
2023-10-10T11:18:40.136Z,14.71
2023-10-10T11:19:40.099Z,14.70
2023-10-10T11:20:40.171Z,14.71
2023-10-10T11:21:40.031Z,14.71
2023-10-10T11:22:40.009Z,14.74
2023-10-10T11:23:39.991Z,14.77
2023-10-10T11:24:39.937Z,14.77
2023-10-10T11:25:39.950Z,14.79
2023-10-10T11:26:39.927Z,14.80
2023-10-10T11:27:39.825Z,14.83
2023-10-10T11:28:39.829Z,14.83
2023-10-10T11:29:39.779Z,14.86
2023-10-10T11:30:39.751Z,14.86
2023-10-10T11:31:39.713Z,14.84
2023-10-10T11:32:39.733Z,14.88
2023-10-10T11:33:39.648Z,14.88
2023-10-10T11:34:39.575Z,14.90
2023-10-10T11:35:39.554Z,14.87
2023-10-10T11:36:39.762Z,14.90
2023-10-10T11:37:39.464Z,14.87
2023-10-10T11:38:39.493Z,14.90
2023-10-10T11:39:39.381Z,14.87
2023-10-10T11:40:39.380Z,14.88
2023-10-10T11:41:39.350Z,14.88
2023-10-10T11:42:39.291Z,14.90
2023-10-10T11:43:39.245Z,14.90
2023-10-10T11:44:39.264Z,14.87
2023-10-10T11:45:39.310Z,14.87
2023-10-10T11:46:39.138Z,14.87
2023-10-10T11:47:39.148Z,14.84
2023-10-10T11:48:39.058Z,14.86
2023-10-10T11:49:39.016Z,14.84
2023-10-10T11:50:39.045Z,14.83
2023-10-10T11:51:38.935Z,14.84
2023-10-10T11:52:38.911Z,14.81
2023-10-10T11:53:38.877Z,14.83
2023-10-10T11:54:38.822Z,14.80
2023-10-10T11:55:38.820Z,14.77
2023-10-10T11:56:38.751Z,14.74
2023-10-10T11:57:38.688Z,14.80
2023-10-10T11:58:38.666Z,14.74
2023-10-10T11:59:38.641Z,14.81
2023-10-10T12:00:38.584Z,14.81
2023-10-10T12:01:38.606Z,14.84
2023-10-10T12:02:38.560Z,14.86
2023-10-10T12:03:38.483Z,14.86
2023-10-10T12:04:38.451Z,14.87
2023-10-10T12:05:38.457Z,14.91
2023-10-10T12:06:38.326Z,14.93
2023-10-10T12:07:38.281Z,14.96
2023-10-10T12:08:38.260Z,15.03
2023-10-10T12:09:38.175Z,15.06
2023-10-10T12:10:38.160Z,15.06
2023-10-10T12:11:38.146Z,15.09
2023-10-10T12:12:38.063Z,15.14
2023-10-10T12:13:38.015Z,15.16
2023-10-10T12:14:38.028Z,15.16
2023-10-10T12:15:37.943Z,15.19
2023-10-10T12:16:38.000Z,15.17
2023-10-10T12:17:37.969Z,15.20
2023-10-10T12:18:37.822Z,15.19
2023-10-10T12:19:37.833Z,15.19
2023-10-10T12:20:37.879Z,15.19
2023-10-10T12:21:37.702Z,15.19
2023-10-10T12:22:37.775Z,15.19
2023-10-10T12:23:37.653Z,15.21
2023-10-10T12:24:37.572Z,15.21
2023-10-10T12:25:37.566Z,15.24
2023-10-10T12:26:37.585Z,15.26
2023-10-10T12:27:37.451Z,15.27
2023-10-10T12:28:37.404Z,15.30
2023-10-10T12:29:37.367Z,15.32
2023-10-10T12:30:37.332Z,15.34
2023-10-10T12:31:37.319Z,15.34
2023-10-10T12:32:37.324Z,15.36
2023-10-10T12:33:37.233Z,15.41
2023-10-10T12:34:37.158Z,15.41
2023-10-10T12:35:37.205Z,15.42
2023-10-10T12:36:37.059Z,15.46
2023-10-10T12:37:37.028Z,15.46
2023-10-10T12:38:37.000Z,15.48
2023-10-10T12:39:36.940Z,15.49
2023-10-10T12:40:36.997Z,15.46
2023-10-10T12:41:36.945Z,15.48
2023-10-10T12:42:36.828Z,15.46
2023-10-10T12:43:36.779Z,15.46
2023-10-10T12:44:36.740Z,15.46
2023-10-10T12:45:36.744Z,15.49
2023-10-10T12:46:36.648Z,15.48
2023-10-10T12:47:36.678Z,15.46
2023-10-10T12:48:36.594Z,15.48
2023-10-10T12:49:36.494Z,15.42
2023-10-10T12:50:36.504Z,15.42
2023-10-10T12:51:36.437Z,15.41
2023-10-10T12:52:36.377Z,15.45